sensor_id;sensor_type;location;lat;lon;timestamp;temperature;humidity
14521;DHT22;7347;50.844;4.490;2022-10-16T06:00:21;13.10;99.90
14521;DHT22;7347;50.844;4.490;2022-10-16T06:02:48;13.00;99.90
14521;DHT22;7347;50.844;4.490;2022-10-16T06:05:14;13.00;99.90
14521;DHT22;7347;50.844;4.490;2022-10-16T06:07:41;13.00;99.90
14521;DHT22;7347;50.844;4.490;2022-10-16T06:10:08;13.00;99.90
14521;DHT22;7347;50.844;4.490;2022-10-16T06:12:35;13.00;99.90
14521;DHT22;7347;50.844;4.490;2022-10-16T06:15:02;13.00;99.90
14521;DHT22;7347;50.844;4.490;2022-10-16T06:17:31;13.00;99.90
14521;DHT22;7347;50.844;4.490;2022-10-16T06:19:57;13.10;99.90
14521;DHT22;7347;50.844;4.490;2022-10-16T06:22:24;13.10;99.90
14521;DHT22;7347;50.844;4.490;2022-10-16T06:24:51;13.10;99.90
14521;DHT22;7347;50.844;4.490;2022-10-16T06:27:18;13.10;99.90
14521;DHT22;7347;50.844;4.490;2022-10-16T06:29:45;13.10;99.90
14521;DHT22;7347;50.844;4.490;2022-10-16T06:32:11;13.10;99.90
14521;DHT22;7347;50.844;4.490;2022-10-16T06:34:40;13.10;99.90
14521;DHT22;7347;50.844;4.490;2022-10-16T06:37:06;13.20;99.90
14521;DHT22;7347;50.844;4.490;2022-10-16T06:39:33;13.20;99.90
14521;DHT22;7347;50.844;4.490;2022-10-16T06:42:00;13.20;99.90
14521;DHT22;7347;50.844;4.490;2022-10-16T06:44:27;13.20;99.90
14521;DHT22;7347;50.844;4.490;2022-10-16T06:46:54;13.20;99.90
14521;DHT22;7347;50.844;4.490;2022-10-16T06:49:20;13.50;99.90
14521;DHT22;7347;50.844;4.490;2022-10-16T06:51:49;13.80;99.90
14521;DHT22;7347;50.844;4.490;2022-10-16T06:54:16;14.20;99.90
14521;DHT22;7347;50.844;4.490;2022-10-16T06:56:43;14.60;99.90
14521;DHT22;7347;50.844;4.490;2022-10-16T06:59:11;15.20;99.90
14521;DHT22;7347;50.844;4.490;2022-10-16T07:01:38;16.00;99.90
14521;DHT22;7347;50.844;4.490;2022-10-16T07:04:05;16.40;99.90
14521;DHT22;7347;50.844;4.490;2022-10-16T07:06:33;17.30;99.90
14521;DHT22;7347;50.844;4.490;2022-10-16T07:09:04;17.80;99.90
14521;DHT22;7347;50.844;4.490;2022-10-16T07:11:31;18.10;99.90
14521;DHT22;7347;50.844;4.490;2022-10-16T07:13:58;18.20;99.90
14521;DHT22;7347;50.844;4.490;2022-10-16T07:16:26;18.10;99.90
14521;DHT22;7347;50.844;4.490;2022-10-16T07:18:54;18.60;99.90
14521;DHT22;7347;50.844;4.490;2022-10-16T07:21:24;19.20;99.90
14521;DHT22;7347;50.844;4.490;2022-10-16T07:23:52;19.60;99.90
14521;DHT22;7347;50.844;4.490;2022-10-16T07:26:21;19.90;99.90
14521;DHT22;7347;50.844;4.490;2022-10-16T07:28:48;20.50;99.90
14521;DHT22;7347;50.844;4.490;2022-10-16T07:31:16;20.10;99.90
14521;DHT22;7347;50.844;4.490;2022-10-16T07:33:43;20.20;99.90
14521;DHT22;7347;50.844;4.490;2022-10-16T07:36:11;20.20;99.90
14521;DHT22;7347;50.844;4.490;2022-10-16T07:38:38;19.90;99.90
14521;DHT22;7347;50.844;4.490;2022-10-16T07:41:06;20.00;99.90
14521;DHT22;7347;50.844;4.490;2022-10-16T07:43:35;20.00;99.90
14521;DHT22;7347;50.844;4.490;2022-10-16T07:46:02;20.10;99.90
14521;DHT22;7347;50.844;4.490;2022-10-16T07:48:31;20.30;99.90
14521;DHT22;7347;50.844;4.490;2022-10-16T07:50:58;20.40;99.90
14521;DHT22;7347;50.844;4.490;2022-10-16T07:53:25;20.60;99.90
14521;DHT22;7347;50.844;4.490;2022-10-16T07:55:56;20.30;99.90
14521;DHT22;7347;50.844;4.490;2022-10-16T07:58:23;20.20;99.90
14521;DHT22;7347;50.844;4.490;2022-10-16T08:00:51;20.60;99.90
14521;DHT22;7347;50.844;4.490;2022-10-16T08:03:18;20.70;99.90
14521;DHT22;7347;50.844;4.490;2022-10-16T08:05:44;20.60;99.90
14521;DHT22;7347;50.844;4.490;2022-10-16T08:08:13;21.00;99.90
14521;DHT22;7347;50.844;4.490;2022-10-16T08:10:40;21.10;99.90
14521;DHT22;7347;50.844;4.490;2022-10-16T08:13:07;21.30;99.90
14521;DHT22;7347;50.844;4.490;2022-10-16T08:15:34;21.10;99.90
14521;DHT22;7347;50.844;4.490;2022-10-16T08:18:04;21.10;99.90
14521;DHT22;7347;50.844;4.490;2022-10-16T08:20:32;20.90;99.90
14521;DHT22;7347;50.844;4.490;2022-10-16T08:23:00;20.40;99.90
14521;DHT22;7347;50.844;4.490;2022-10-16T08:25:27;20.30;99.90
14521;DHT22;7347;50.844;4.490;2022-10-16T08:27:54;20.40;99.90
14521;DHT22;7347;50.844;4.490;2022-10-16T08:30:22;20.50;99.90
14521;DHT22;7347;50.844;4.490;2022-10-16T08:32:50;20.50;99.90
14521;DHT22;7347;50.844;4.490;2022-10-16T08:35:18;20.50;99.90
14521;DHT22;7347;50.844;4.490;2022-10-16T08:37:44;20.40;99.90
14521;DHT22;7347;50.844;4.490;2022-10-16T08:40:17;19.90;99.90
14521;DHT22;7347;50.844;4.490;2022-10-16T08:43:03;19.70;99.90
14521;DHT22;7347;50.844;4.490;2022-10-16T08:45:42;19.60;99.90
14521;DHT22;7347;50.844;4.490;2022-10-16T08:48:18;19.40;99.90
14521;DHT22;7347;50.844;4.490;2022-10-16T08:50:50;19.20;99.90
14521;DHT22;7347;50.844;4.490;2022-10-16T08:53:22;19.10;99.90
14521;DHT22;7347;50.844;4.490;2022-10-16T08:55:52;18.80;99.90
14521;DHT22;7347;50.844;4.490;2022-10-16T08:58:21;18.50;99.90
14521;DHT22;7347;50.844;4.490;2022-10-16T09:00:50;18.50;99.90
14521;DHT22;7347;50.844;4.490;2022-10-16T09:03:35;18.40;99.90
14521;DHT22;7347;50.844;4.490;2022-10-16T09:06:30;18.20;99.90
14521;DHT22;7347;50.844;4.490;2022-10-16T09:09:15;18.00;99.90
14521;DHT22;7347;50.844;4.490;2022-10-16T09:11:47;17.90;99.90
14521;DHT22;7347;50.844;4.490;2022-10-16T09:14:37;18.00;99.90
14521;DHT22;7347;50.844;4.490;2022-10-16T09:17:16;18.00;99.90
14521;DHT22;7347;50.844;4.490;2022-10-16T09:19:50;18.00;99.90
14521;DHT22;7347;50.844;4.490;2022-10-16T09:22:21;18.00;99.90
14521;DHT22;7347;50.844;4.490;2022-10-16T09:24:51;18.10;99.90
14521;DHT22;7347;50.844;4.490;2022-10-16T09:27:18;18.20;99.90
14521;DHT22;7347;50.844;4.490;2022-10-16T09:29:45;18.20;99.90
14521;DHT22;7347;50.844;4.490;2022-10-16T09:32:14;18.30;99.90
14521;DHT22;7347;50.844;4.490;2022-10-16T09:34:45;18.20;99.90
14521;DHT22;7347;50.844;4.490;2022-10-16T09:37:14;18.10;99.90
14521;DHT22;7347;50.844;4.490;2022-10-16T09:39:49;18.10;99.90
14521;DHT22;7347;50.844;4.490;2022-10-16T09:42:17;18.10;99.90
14521;DHT22;7347;50.844;4.490;2022-10-16T09:44:48;18.10;99.90
14521;DHT22;7347;50.844;4.490;2022-10-16T09:47:18;18.00;99.90
14521;DHT22;7347;50.844;4.490;2022-10-16T09:49:53;18.20;99.90
14521;DHT22;7347;50.844;4.490;2022-10-16T09:52:21;18.40;99.90
14521;DHT22;7347;50.844;4.490;2022-10-16T09:54:53;18.40;99.90
14521;DHT22;7347;50.844;4.490;2022-10-16T09:57:21;18.40;99.90
14521;DHT22;7347;50.844;4.490;2022-10-16T09:59:49;18.40;99.90
14521;DHT22;7347;50.844;4.490;2022-10-16T10:02:19;18.40;99.90
14521;DHT22;7347;50.844;4.490;2022-10-16T10:04:50;18.50;99.90
14521;DHT22;7347;50.844;4.490;2022-10-16T10:07:24;18.70;99.90
14521;DHT22;7347;50.844;4.490;2022-10-16T10:09:53;18.70;99.90
14521;DHT22;7347;50.844;4.490;2022-10-16T10:12:23;18.70;99.90
14521;DHT22;7347;50.844;4.490;2022-10-16T10:14:51;18.70;99.90
14521;DHT22;7347;50.844;4.490;2022-10-16T10:17:20;18.80;99.90
14521;DHT22;7347;50.844;4.490;2022-10-16T10:19:52;18.70;99.90
14521;DHT22;7347;50.844;4.490;2022-10-16T10:22:25;18.80;99.90
14521;DHT22;7347;50.844;4.490;2022-10-16T10:25:15;18.70;99.90
14521;DHT22;7347;50.844;4.490;2022-10-16T10:28:05;18.80;99.90
14521;DHT22;7347;50.844;4.490;2022-10-16T10:30:38;19.00;99.90
14521;DHT22;7347;50.844;4.490;2022-10-16T10:33:18;19.20;99.90
14521;DHT22;7347;50.844;4.490;2022-10-16T10:35:56;19.20;99.90
14521;DHT22;7347;50.844;4.490;2022-10-16T10:38:31;19.50;99.90
14521;DHT22;7347;50.844;4.490;2022-10-16T10:41:13;19.50;99.90
14521;DHT22;7347;50.844;4.490;2022-10-16T10:43:53;19.30;99.90
14521;DHT22;7347;50.844;4.490;2022-10-16T10:46:30;19.10;99.90
14521;DHT22;7347;50.844;4.490;2022-10-16T10:49:07;18.90;99.90
14521;DHT22;7347;50.844;4.490;2022-10-16T10:51:40;18.80;99.90
14521;DHT22;7347;50.844;4.490;2022-10-16T10:54:15;18.80;99.90
14521;DHT22;7347;50.844;4.490;2022-10-16T10:56:50;18.70;99.90
14521;DHT22;7347;50.844;4.490;2022-10-16T10:59:48;18.60;99.90
14521;DHT22;7347;50.844;4.490;2022-10-16T11:02:26;18.60;99.90
14521;DHT22;7347;50.844;4.490;2022-10-16T11:05:38;18.70;99.90
14521;DHT22;7347;50.844;4.490;2022-10-16T11:08:11;18.70;99.90
14521;DHT22;7347;50.844;4.490;2022-10-16T11:10:46;18.60;99.90
14521;DHT22;7347;50.844;4.490;2022-10-16T11:13:23;18.60;99.90
14521;DHT22;7347;50.844;4.490;2022-10-16T11:15:52;18.70;99.90
14521;DHT22;7347;50.844;4.490;2022-10-16T11:18:22;18.70;99.90
14521;DHT22;7347;50.844;4.490;2022-10-16T11:20:53;18.70;99.90
14521;DHT22;7347;50.844;4.490;2022-10-16T11:23:25;18.90;99.90
14521;DHT22;7347;50.844;4.490;2022-10-16T11:25:57;18.90;99.90
14521;DHT22;7347;50.844;4.490;2022-10-16T11:28:29;19.20;99.90
14521;DHT22;7347;50.844;4.490;2022-10-16T11:31:04;19.40;99.90
14521;DHT22;7347;50.844;4.490;2022-10-16T11:33:39;19.50;99.90
14521;DHT22;7347;50.844;4.490;2022-10-16T11:36:12;19.60;99.90
14521;DHT22;7347;50.844;4.490;2022-10-16T11:38:44;19.40;99.90
14521;DHT22;7347;50.844;4.490;2022-10-16T11:41:18;19.40;99.90
14521;DHT22;7347;50.844;4.490;2022-10-16T11:43:54;19.40;99.90
14521;DHT22;7347;50.844;4.490;2022-10-16T11:46:24;19.50;99.90
14521;DHT22;7347;50.844;4.490;2022-10-16T11:48:57;19.60;99.90
14521;DHT22;7347;50.844;4.490;2022-10-16T11:51:33;19.50;99.90
14521;DHT22;7347;50.844;4.490;2022-10-16T11:54:07;19.50;99.90
14521;DHT22;7347;50.844;4.490;2022-10-16T11:56:38;19.40;99.90
14521;DHT22;7347;50.844;4.490;2022-10-16T11:59:13;19.30;99.90
14521;DHT22;7347;50.844;4.490;2022-10-16T12:01:46;19.30;99.90
14521;DHT22;7347;50.844;4.490;2022-10-16T12:04:19;19.40;99.90
14521;DHT22;7347;50.844;4.490;2022-10-16T12:06:51;19.60;99.90
14521;DHT22;7347;50.844;4.490;2022-10-16T12:09:22;19.90;99.90
14521;DHT22;7347;50.844;4.490;2022-10-16T12:11:50;20.00;99.90
14521;DHT22;7347;50.844;4.490;2022-10-16T12:14:34;20.10;99.90
14521;DHT22;7347;50.844;4.490;2022-10-16T12:17:03;20.30;99.90
14521;DHT22;7347;50.844;4.490;2022-10-16T12:19:32;20.30;99.90
14521;DHT22;7347;50.844;4.490;2022-10-16T12:22:00;20.40;99.90
14521;DHT22;7347;50.844;4.490;2022-10-16T12:24:33;20.50;99.90
14521;DHT22;7347;50.844;4.490;2022-10-16T12:27:00;20.50;99.90
14521;DHT22;7347;50.844;4.490;2022-10-16T12:29:37;20.40;99.90
14521;DHT22;7347;50.844;4.490;2022-10-16T12:32:19;20.40;99.90
14521;DHT22;7347;50.844;4.490;2022-10-16T12:34:49;20.60;99.90
14521;DHT22;7347;50.844;4.490;2022-10-16T12:37:21;20.80;99.90
14521;DHT22;7347;50.844;4.490;2022-10-16T12:39:50;21.00;99.90
14521;DHT22;7347;50.844;4.490;2022-10-16T12:42:22;21.10;99.90
14521;DHT22;7347;50.844;4.490;2022-10-16T12:44:50;21.20;99.90
14521;DHT22;7347;50.844;4.490;2022-10-16T12:47:22;21.30;99.90
14521;DHT22;7347;50.844;4.490;2022-10-16T12:49:51;21.10;99.90
14521;DHT22;7347;50.844;4.490;2022-10-16T12:52:34;21.10;99.90
14521;DHT22;7347;50.844;4.490;2022-10-16T12:55:01;21.20;99.90
14521;DHT22;7347;50.844;4.490;2022-10-16T12:57:39;21.20;99.90
14521;DHT22;7347;50.844;4.490;2022-10-16T13:00:18;21.10;99.90
14521;DHT22;7347;50.844;4.490;2022-10-16T13:05:46;20.90;99.90
14521;DHT22;7347;50.844;4.490;2022-10-16T13:08:39;20.70;99.90
14521;DHT22;7347;50.844;4.490;2022-10-16T13:11:17;20.50;99.90
14521;DHT22;7347;50.844;4.490;2022-10-16T13:14:01;20.50;99.90
14521;DHT22;7347;50.844;4.490;2022-10-16T13:16:39;20.60;99.90
14521;DHT22;7347;50.844;4.490;2022-10-16T13:19:16;20.60;99.90
14521;DHT22;7347;50.844;4.490;2022-10-16T13:21:50;20.70;99.90
14521;DHT22;7347;50.844;4.490;2022-10-16T13:24:29;20.90;99.90
14521;DHT22;7347;50.844;4.490;2022-10-16T13:27:09;21.00;99.90
14521;DHT22;7347;50.844;4.490;2022-10-16T13:29:39;21.00;99.90
14521;DHT22;7347;50.844;4.490;2022-10-16T13:32:11;20.90;99.90
14521;DHT22;7347;50.844;4.490;2022-10-16T13:34:44;20.80;99.90
14521;DHT22;7347;50.844;4.490;2022-10-16T13:37:17;20.60;99.90
14521;DHT22;7347;50.844;4.490;2022-10-16T13:39:45;20.50;99.90
14521;DHT22;7347;50.844;4.490;2022-10-16T13:42:14;20.50;99.90
14521;DHT22;7347;50.844;4.490;2022-10-16T13:44:44;20.70;99.90
14521;DHT22;7347;50.844;4.490;2022-10-16T13:47:17;20.90;99.90
14521;DHT22;7347;50.844;4.490;2022-10-16T13:49:44;21.00;99.90
14521;DHT22;7347;50.844;4.490;2022-10-16T13:52:19;21.00;99.90
14521;DHT22;7347;50.844;4.490;2022-10-16T13:54:46;20.90;99.90
14521;DHT22;7347;50.844;4.490;2022-10-16T13:57:14;20.70;99.90
14521;DHT22;7347;50.844;4.490;2022-10-16T13:59:41;20.40;99.90
14521;DHT22;7347;50.844;4.490;2022-10-16T14:02:18;20.50;99.90
14521;DHT22;7347;50.844;4.490;2022-10-16T14:04:46;20.70;99.90
14521;DHT22;7347;50.844;4.490;2022-10-16T14:07:17;20.60;99.90
14521;DHT22;7347;50.844;4.490;2022-10-16T14:09:48;20.70;99.90
14521;DHT22;7347;50.844;4.490;2022-10-16T14:12:15;20.90;99.90
14521;DHT22;7347;50.844;4.490;2022-10-16T14:14:44;21.10;99.90
14521;DHT22;7347;50.844;4.490;2022-10-16T14:17:15;20.90;99.90
14521;DHT22;7347;50.844;4.490;2022-10-16T14:19:46;20.90;99.90
14521;DHT22;7347;50.844;4.490;2022-10-16T14:22:26;20.80;99.90
14521;DHT22;7347;50.844;4.490;2022-10-16T14:24:53;20.60;99.90
14521;DHT22;7347;50.844;4.490;2022-10-16T14:27:32;20.40;99.90
14521;DHT22;7347;50.844;4.490;2022-10-16T14:30:13;20.30;99.90
14521;DHT22;7347;50.844;4.490;2022-10-16T14:32:42;20.50;99.90
14521;DHT22;7347;50.844;4.490;2022-10-16T14:35:24;20.50;99.90
14521;DHT22;7347;50.844;4.490;2022-10-16T14:37:52;20.40;99.90
14521;DHT22;7347;50.844;4.490;2022-10-16T14:40:21;20.20;99.90
14521;DHT22;7347;50.844;4.490;2022-10-16T14:42:49;20.30;99.90
14521;DHT22;7347;50.844;4.490;2022-10-16T14:45:19;20.50;99.90
14521;DHT22;7347;50.844;4.490;2022-10-16T14:47:49;20.30;99.90
14521;DHT22;7347;50.844;4.490;2022-10-16T14:50:17;20.20;99.90
14521;DHT22;7347;50.844;4.490;2022-10-16T14:52:45;20.00;99.90
14521;DHT22;7347;50.844;4.490;2022-10-16T14:55:12;19.90;99.90
14521;DHT22;7347;50.844;4.490;2022-10-16T14:57:39;20.10;99.90
14521;DHT22;7347;50.844;4.490;2022-10-16T15:00:15;20.10;99.90
14521;DHT22;7347;50.844;4.490;2022-10-16T15:02:43;19.90;99.90
14521;DHT22;7347;50.844;4.490;2022-10-16T15:05:16;19.60;99.90
14521;DHT22;7347;50.844;4.490;2022-10-16T15:07:45;19.60;99.90
14521;DHT22;7347;50.844;4.490;2022-10-16T15:10:12;19.60;99.90
14521;DHT22;7347;50.844;4.490;2022-10-16T15:12:39;19.80;99.90
14521;DHT22;7347;50.844;4.490;2022-10-16T15:15:25;19.90;99.90
14521;DHT22;7347;50.844;4.490;2022-10-16T15:17:54;20.00;99.90
14521;DHT22;7347;50.844;4.490;2022-10-16T15:20:22;20.20;99.90
14521;DHT22;7347;50.844;4.490;2022-10-16T15:22:51;20.20;99.90
14521;DHT22;7347;50.844;4.490;2022-10-16T15:25:31;20.10;99.90
14521;DHT22;7347;50.844;4.490;2022-10-16T15:27:59;19.90;99.90
14521;DHT22;7347;50.844;4.490;2022-10-16T15:30:26;19.60;99.90
14521;DHT22;7347;50.844;4.490;2022-10-16T15:32:53;19.80;99.90
14521;DHT22;7347;50.844;4.490;2022-10-16T15:35:20;19.90;99.90
14521;DHT22;7347;50.844;4.490;2022-10-16T15:37:47;20.00;99.90
14521;DHT22;7347;50.844;4.490;2022-10-16T15:40:16;19.80;99.90
14521;DHT22;7347;50.844;4.490;2022-10-16T15:42:43;19.80;99.90
14521;DHT22;7347;50.844;4.490;2022-10-16T15:45:11;19.90;99.90
14521;DHT22;7347;50.844;4.490;2022-10-16T15:47:39;19.90;99.90
14521;DHT22;7347;50.844;4.490;2022-10-16T15:50:08;19.80;99.90
14521;DHT22;7347;50.844;4.490;2022-10-16T15:52:36;19.70;99.90
14521;DHT22;7347;50.844;4.490;2022-10-16T15:55:05;19.60;99.90
14521;DHT22;7347;50.844;4.490;2022-10-16T15:57:33;19.50;99.90
14521;DHT22;7347;50.844;4.490;2022-10-16T16:00:00;19.60;99.90
14521;DHT22;7347;50.844;4.490;2022-10-16T16:02:27;19.50;99.90
14521;DHT22;7347;50.844;4.490;2022-10-16T16:04:55;19.50;99.90
14521;DHT22;7347;50.844;4.490;2022-10-16T16:07:22;19.40;99.90
14521;DHT22;7347;50.844;4.490;2022-10-16T16:09:49;19.40;99.90
14521;DHT22;7347;50.844;4.490;2022-10-16T16:12:16;19.30;99.90
14521;DHT22;7347;50.844;4.490;2022-10-16T16:14:44;19.30;99.90
14521;DHT22;7347;50.844;4.490;2022-10-16T16:17:14;19.10;99.90
14521;DHT22;7347;50.844;4.490;2022-10-16T16:19:40;19.10;99.90
14521;DHT22;7347;50.844;4.490;2022-10-16T16:22:07;19.00;99.90
14521;DHT22;7347;50.844;4.490;2022-10-16T16:24:34;18.80;99.90
14521;DHT22;7347;50.844;4.490;2022-10-16T16:27:01;18.50;99.90
14521;DHT22;7347;50.844;4.490;2022-10-16T16:29:28;18.60;99.90
14521;DHT22;7347;50.844;4.490;2022-10-16T16:31:56;18.50;99.90
14521;DHT22;7347;50.844;4.490;2022-10-16T16:34:24;18.60;99.90
14521;DHT22;7347;50.844;4.490;2022-10-16T16:36:51;18.50;99.90
14521;DHT22;7347;50.844;4.490;2022-10-16T16:39:19;18.40;99.90
14521;DHT22;7347;50.844;4.490;2022-10-16T16:41:45;18.40;99.90
14521;DHT22;7347;50.844;4.490;2022-10-16T16:44:13;18.40;99.90
14521;DHT22;7347;50.844;4.490;2022-10-16T16:46:40;18.30;99.90
14521;DHT22;7347;50.844;4.490;2022-10-16T16:49:11;18.30;99.90
14521;DHT22;7347;50.844;4.490;2022-10-16T16:51:39;18.30;99.90
14521;DHT22;7347;50.844;4.490;2022-10-16T16:54:06;18.20;99.90
14521;DHT22;7347;50.844;4.490;2022-10-16T16:56:34;18.20;99.90
14521;DHT22;7347;50.844;4.490;2022-10-16T16:59:01;18.20;99.90
14521;DHT22;7347;50.844;4.490;2022-10-16T17:01:28;18.10;99.90
14521;DHT22;7347;50.844;4.490;2022-10-16T17:03:57;18.10;99.90
14521;DHT22;7347;50.844;4.490;2022-10-16T17:06:27;18.10;99.90
14521;DHT22;7347;50.844;4.490;2022-10-16T17:08:55;17.90;99.90
14521;DHT22;7347;50.844;4.490;2022-10-16T17:11:24;18.00;99.90
14521;DHT22;7347;50.844;4.490;2022-10-16T17:13:52;18.00;99.90
14521;DHT22;7347;50.844;4.490;2022-10-16T17:16:21;17.70;99.90
14521;DHT22;7347;50.844;4.490;2022-10-16T17:18:48;17.40;99.90
14521;DHT22;7347;50.844;4.490;2022-10-16T17:21:15;17.30;99.90
14521;DHT22;7347;50.844;4.490;2022-10-16T17:23:43;17.20;99.90
14521;DHT22;7347;50.844;4.490;2022-10-16T17:26:12;17.10;99.90
14521;DHT22;7347;50.844;4.490;2022-10-16T17:28:39;17.00;99.90
14521;DHT22;7347;50.844;4.490;2022-10-16T17:31:07;16.80;99.90
14521;DHT22;7347;50.844;4.490;2022-10-16T17:33:34;16.80;99.90
14521;DHT22;7347;50.844;4.490;2022-10-16T17:36:01;16.70;99.90
14521;DHT22;7347;50.844;4.490;2022-10-16T17:38:28;16.70;99.90
14521;DHT22;7347;50.844;4.490;2022-10-16T17:40:56;16.70;99.90
14521;DHT22;7347;50.844;4.490;2022-10-16T17:43:23;16.80;99.90
14521;DHT22;7347;50.844;4.490;2022-10-16T17:45:50;16.80;99.90
14521;DHT22;7347;50.844;4.490;2022-10-16T17:48:17;16.70;99.90
14521;DHT22;7347;50.844;4.490;2022-10-16T17:50:44;16.70;99.90
14521;DHT22;7347;50.844;4.490;2022-10-16T17:53:10;16.70;99.90
14521;DHT22;7347;50.844;4.490;2022-10-16T17:55:38;16.60;99.90
14521;DHT22;7347;50.844;4.490;2022-10-16T17:58:06;16.70;99.90
14521;DHT22;7347;50.844;4.490;2022-10-16T18:00:33;16.70;99.90
14521;DHT22;7347;50.844;4.490;2022-10-16T18:03:00;16.70;99.90
14521;DHT22;7347;50.844;4.490;2022-10-16T18:05:27;16.70;99.90
14521;DHT22;7347;50.844;4.490;2022-10-16T18:07:54;16.80;99.90
14521;DHT22;7347;50.844;4.490;2022-10-16T18:10:21;16.80;99.90
14521;DHT22;7347;50.844;4.490;2022-10-16T18:12:47;16.80;99.90
14521;DHT22;7347;50.844;4.490;2022-10-16T18:15:16;16.80;99.90
14521;DHT22;7347;50.844;4.490;2022-10-16T18:17:43;16.80;99.90
14521;DHT22;7347;50.844;4.490;2022-10-16T18:20:10;16.80;99.90
14521;DHT22;7347;50.844;4.490;2022-10-16T18:22:37;16.80;99.90
14521;DHT22;7347;50.844;4.490;2022-10-16T18:25:05;16.80;99.90
14521;DHT22;7347;50.844;4.490;2022-10-16T18:27:33;16.80;99.90
14521;DHT22;7347;50.844;4.490;2022-10-16T18:30:00;16.80;99.90
14521;DHT22;7347;50.844;4.490;2022-10-16T18:32:28;16.70;99.90
14521;DHT22;7347;50.844;4.490;2022-10-16T18:34:55;16.70;99.90
14521;DHT22;7347;50.844;4.490;2022-10-16T18:37:22;16.60;99.90
14521;DHT22;7347;50.844;4.490;2022-10-16T18:39:49;16.50;99.90
14521;DHT22;7347;50.844;4.490;2022-10-16T18:42:17;16.40;99.90
14521;DHT22;7347;50.844;4.490;2022-10-16T18:44:44;16.40;99.90
14521;DHT22;7347;50.844;4.490;2022-10-16T18:47:11;16.50;99.90
14521;DHT22;7347;50.844;4.490;2022-10-16T18:49:39;16.40;99.90
14521;DHT22;7347;50.844;4.490;2022-10-16T18:52:06;16.40;99.90
14521;DHT22;7347;50.844;4.490;2022-10-16T18:54:33;16.50;99.90
14521;DHT22;7347;50.844;4.490;2022-10-16T18:57:00;16.50;99.90
14521;DHT22;7347;50.844;4.490;2022-10-16T18:59:27;16.50;99.90
14521;DHT22;7347;50.844;4.490;2022-10-16T19:01:54;16.50;99.90
14521;DHT22;7347;50.844;4.490;2022-10-16T19:04:22;16.50;99.90
14521;DHT22;7347;50.844;4.490;2022-10-16T19:06:52;16.50;99.90
14521;DHT22;7347;50.844;4.490;2022-10-16T19:09:21;16.60;99.90
14521;DHT22;7347;50.844;4.490;2022-10-16T19:11:49;16.50;99.90
14521;DHT22;7347;50.844;4.490;2022-10-16T19:14:16;16.40;99.90
14521;DHT22;7347;50.844;4.490;2022-10-16T19:16:44;16.30;99.90
14521;DHT22;7347;50.844;4.490;2022-10-16T19:19:13;16.30;99.90
14521;DHT22;7347;50.844;4.490;2022-10-16T19:21:40;16.30;99.90
14521;DHT22;7347;50.844;4.490;2022-10-16T19:24:11;16.30;99.90
14521;DHT22;7347;50.844;4.490;2022-10-16T19:26:38;16.40;99.90
14521;DHT22;7347;50.844;4.490;2022-10-16T19:29:05;16.30;99.90
14521;DHT22;7347;50.844;4.490;2022-10-16T19:31:33;16.30;99.90
14521;DHT22;7347;50.844;4.490;2022-10-16T19:34:01;16.20;99.90
14521;DHT22;7347;50.844;4.490;2022-10-16T19:36:30;16.20;99.90
14521;DHT22;7347;50.844;4.490;2022-10-16T19:38:58;16.10;99.90
14521;DHT22;7347;50.844;4.490;2022-10-16T19:41:27;15.90;99.90
14521;DHT22;7347;50.844;4.490;2022-10-16T19:43:55;16.00;99.90
14521;DHT22;7347;50.844;4.490;2022-10-16T19:46:25;16.00;99.90
14521;DHT22;7347;50.844;4.490;2022-10-16T19:48:56;16.00;99.90
14521;DHT22;7347;50.844;4.490;2022-10-16T19:51:24;15.90;99.90
14521;DHT22;7347;50.844;4.490;2022-10-16T19:53:53;15.80;99.90
14521;DHT22;7347;50.844;4.490;2022-10-16T19:56:21;15.80;99.90
14521;DHT22;7347;50.844;4.490;2022-10-16T19:58:51;15.80;99.90
14521;DHT22;7347;50.844;4.490;2022-10-16T20:01:19;15.80;99.90
14521;DHT22;7347;50.844;4.490;2022-10-16T20:03:47;15.90;99.90
14521;DHT22;7347;50.844;4.490;2022-10-16T20:06:15;15.90;99.90
14521;DHT22;7347;50.844;4.490;2022-10-16T20:08:43;16.10;99.90
14521;DHT22;7347;50.844;4.490;2022-10-16T20:11:13;16.10;99.90
14521;DHT22;7347;50.844;4.490;2022-10-16T20:13:40;16.20;99.90
14521;DHT22;7347;50.844;4.490;2022-10-16T20:16:10;16.10;99.90
14521;DHT22;7347;50.844;4.490;2022-10-16T20:18:37;16.10;99.90
14521;DHT22;7347;50.844;4.490;2022-10-16T20:21:09;16.10;99.90
14521;DHT22;7347;50.844;4.490;2022-10-16T20:23:36;16.20;99.90
14521;DHT22;7347;50.844;4.490;2022-10-16T20:26:02;16.40;99.90
14521;DHT22;7347;50.844;4.490;2022-10-16T20:28:29;16.30;99.90
14521;DHT22;7347;50.844;4.490;2022-10-16T20:30:56;16.20;99.90
14521;DHT22;7347;50.844;4.490;2022-10-16T20:33:24;16.10;99.90
14521;DHT22;7347;50.844;4.490;2022-10-16T20:35:51;15.90;99.90
14521;DHT22;7347;50.844;4.490;2022-10-16T20:38:18;15.90;99.90
14521;DHT22;7347;50.844;4.490;2022-10-16T20:40:46;15.80;99.90
14521;DHT22;7347;50.844;4.490;2022-10-16T20:43:14;15.70;99.90
14521;DHT22;7347;50.844;4.490;2022-10-16T20:45:41;15.60;99.90
14521;DHT22;7347;50.844;4.490;2022-10-16T20:48:09;15.50;99.90
14521;DHT22;7347;50.844;4.490;2022-10-16T20:50:38;15.40;99.90
14521;DHT22;7347;50.844;4.490;2022-10-16T20:53:06;15.40;99.90
14521;DHT22;7347;50.844;4.490;2022-10-16T20:55:36;15.40;99.90
14521;DHT22;7347;50.844;4.490;2022-10-16T20:58:03;15.40;99.90
14521;DHT22;7347;50.844;4.490;2022-10-16T21:00:30;15.30;99.90
14521;DHT22;7347;50.844;4.490;2022-10-16T21:02:57;15.20;99.90
14521;DHT22;7347;50.844;4.490;2022-10-16T21:05:24;15.20;99.90
14521;DHT22;7347;50.844;4.490;2022-10-16T21:07:54;15.10;99.90
14521;DHT22;7347;50.844;4.490;2022-10-16T21:10:21;15.20;99.90
14521;DHT22;7347;50.844;4.490;2022-10-16T21:12:52;15.00;99.90
14521;DHT22;7347;50.844;4.490;2022-10-16T21:15:20;15.00;99.90
14521;DHT22;7347;50.844;4.490;2022-10-16T21:17:46;15.00;99.90
